Aviation Digital Data Service (ADDS)

Output produced by METARs form (1307 UTC 17 October 2017)
found at http://aviationweather.gov/adds/metars/
 
KBDL 171125Z 1712/1818 34004KT P6SM SKC 
     FM171900 26004KT P6SM SKC 
     FM172100 20004KT P6SM SKC